Back to Top

Language: 

My Weather Underground Personal Weather Station Historical Data with Graphs...

Delerius Weather Station Historical Data
Daily Summary for September 11, 2017 Units:  English    Metric   Both
« Previous Day
Next Day »
Daily Weekly Monthly Yearly Custom
  High: Low: Average:
Temperature: 63.0 °F 51.1 °F 55.8 °F
Dew Point: 55.8 °F 46.6 °F 50.9 °F
Humidity: 95 % 68 % 84 %
Wind Speed: 21.0 mph 3.0 mph 12.4 mph
Wind Gust: 35.0 mph - -
Wind:- - West
Pressure: 29.43 in 28.99 in -
Precipitation: 0.13 in    
Historical Graphs
 
 
Tabular Data for September 11, 2017
Time Temperature Dew Point Pressure Wind Wind Speed Wind Gust Humidity Rainfall Rate (Hourly) solar Conditions
00:04 52.0 °F 47.0 °F 29.10 in SW 10.0 mph 20.0 mph 83 % 0.00 in 0 W/m2
00:09 52.0 °F 47.0 °F 29.10 in SW 9.0 mph 15.0 mph 83 % 0.00 in 0 W/m2
00:14 52.0 °F 47.3 °F 29.10 in SW 9.0 mph 14.0 mph 84 % 0.00 in 0 W/m2
00:19 51.8 °F 47.1 °F 29.10 in SW 9.0 mph 15.0 mph 84 % 0.00 in 0 W/m2
00:24 51.6 °F 46.9 °F 29.10 in SW 9.0 mph 15.0 mph 84 % 0.00 in 0 W/m2
00:29 51.6 °F 47.3 °F 29.10 in SW 8.0 mph 13.0 mph 85 % 0.00 in 0 W/m2
00:34 51.4 °F 47.1 °F 29.09 in WSW 7.0 mph 14.0 mph 85 % 0.00 in 0 W/m2
00:39 51.4 °F 47.1 °F 29.09 in SW 8.0 mph 14.0 mph 85 % 0.00 in 0 W/m2
00:44 51.4 °F 47.1 °F 29.09 in SW 8.0 mph 15.0 mph 85 % 0.00 in 0 W/m2
00:49 51.6 °F 47.3 °F 29.09 in SW 9.0 mph 15.0 mph 85 % 0.00 in 0 W/m2
00:54 51.6 °F 46.9 °F 29.09 in SW 9.0 mph 15.0 mph 84 % 0.00 in 0 W/m2
00:59 51.6 °F 46.9 °F 29.09 in SW 9.0 mph 15.0 mph 84 % 0.00 in 0 W/m2
01:04 51.6 °F 46.9 °F 29.09 in SW 9.0 mph 15.0 mph 84 % 0.00 in 0 W/m2
01:09 51.8 °F 47.1 °F 29.09 in SW 9.0 mph 15.0 mph 84 % 0.00 in 0 W/m2
01:14 51.8 °F 46.8 °F 29.09 in SW 8.0 mph 14.0 mph 83 % 0.00 in 0 W/m2
01:19 51.8 °F 46.8 °F 29.09 in SW 9.0 mph 16.0 mph 83 % 0.00 in 0 W/m2
01:24 51.6 °F 46.6 °F 29.08 in SW 9.0 mph 18.0 mph 83 % 0.00 in 0 W/m2
01:29 51.6 °F 46.6 °F 29.08 in SW 10.0 mph 19.0 mph 83 % 0.00 in 0 W/m2
01:34 51.6 °F 46.6 °F 29.08 in SW 11.0 mph 20.0 mph 83 % 0.00 in 0 W/m2
01:39 51.8 °F 46.8 °F 29.08 in SW 10.0 mph 20.0 mph 83 % 0.00 in 0 W/m2
01:44 51.8 °F 46.8 °F 29.08 in SW 11.0 mph 21.0 mph 83 % 0.00 in 0 W/m2
01:49 51.8 °F 46.8 °F 29.08 in SW 11.0 mph 21.0 mph 83 % 0.00 in 0 W/m2
01:54 52.0 °F 47.0 °F 29.07 in SW 10.0 mph 19.0 mph 83 % 0.00 in 0 W/m2
01:59 51.8 °F 46.8 °F 29.07 in SW 10.0 mph 19.0 mph 83 % 0.00 in 0 W/m2
02:04 51.8 °F 47.1 °F 29.07 in SW 10.0 mph 19.0 mph 84 % 0.00 in 0 W/m2
02:09 51.6 °F 47.3 °F 29.07 in SW 12.0 mph 21.0 mph 85 % 0.00 in 0 W/m2
02:11 51.4 °F 47.1 °F 29.07 in SW 12.0 mph 21.0 mph 85 % 0.00 in 0 W/m2
02:16 51.4 °F 47.4 °F 29.07 in SW 10.0 mph 15.0 mph 86 % 0.00 in 0 W/m2
02:21 51.3 °F 47.5 °F 29.06 in SSW 11.0 mph 18.0 mph 87 % 0.00 in 0 W/m2
02:26 51.3 °F 47.5 °F 29.06 in SSW 10.0 mph 18.0 mph 87 % 0.00 in 0 W/m2
02:31 51.3 °F 47.8 °F 29.06 in SSW 9.0 mph 14.0 mph 88 % 0.00 in 0 W/m2
02:36 51.3 °F 47.8 °F 29.06 in SSW 9.0 mph 15.0 mph 88 % 0.00 in 0 W/m2
02:41 51.3 °F 47.8 °F 29.05 in SSW 10.0 mph 19.0 mph 88 % 0.00 in 0 W/m2
02:46 51.3 °F 48.1 °F 29.05 in SSW 9.0 mph 19.0 mph 89 % 0.00 in 0 W/m2
02:51 51.1 °F 48.0 °F 29.05 in SSW 9.0 mph 15.0 mph 89 % 0.00 in 0 W/m2
02:56 51.1 °F 48.0 °F 29.04 in SSW 10.0 mph 18.0 mph 89 % 0.00 in 0 W/m2
03:01 51.1 °F 48.0 °F 29.04 in SSW 10.0 mph 18.0 mph 89 % 0.00 in 0 W/m2
03:06 51.3 °F 48.1 °F 29.04 in SSW 10.0 mph 19.0 mph 89 % 0.00 in 0 W/m2
03:11 51.3 °F 48.4 °F 29.04 in SSW 9.0 mph 19.0 mph 90 % 0.00 in 0 W/m2
03:16 51.3 °F 48.4 °F 29.03 in SSW 10.0 mph 19.0 mph 90 % 0.01 in 0 W/m2
03:21 51.3 °F 48.7 °F 29.03 in SSW 11.0 mph 19.0 mph 91 % 0.01 in 0 W/m2
03:26 51.3 °F 48.7 °F 29.03 in SSW 9.0 mph 16.0 mph 91 % 0.01 in 0 W/m2
03:32 51.3 °F 48.7 °F 29.03 in SSW 10.0 mph 18.0 mph 91 % 0.01 in 0 W/m2
03:37 51.3 °F 48.7 °F 29.02 in SSW 10.0 mph 18.0 mph 91 % 0.01 in 0 W/m2
03:42 51.3 °F 48.7 °F 29.02 in SSW 10.0 mph 23.0 mph 91 % 0.01 in 0 W/m2
03:47 51.3 °F 48.7 °F 29.02 in SSW 11.0 mph 23.0 mph 91 % 0.01 in 0 W/m2
03:52 51.4 °F 49.2 °F 29.02 in SSW 9.0 mph 19.0 mph 92 % 0.01 in 0 W/m2
03:57 51.4 °F 49.2 °F 29.02 in SSW 8.0 mph 14.0 mph 92 % 0.01 in 0 W/m2
04:02 51.4 °F 49.2 °F 29.02 in SSW 8.0 mph 14.0 mph 92 % 0.01 in 0 W/m2
04:07 51.4 °F 49.5 °F 29.02 in SSW 9.0 mph 19.0 mph 93 % 0.01 in 0 W/m2
04:12 51.4 °F 49.5 °F 29.01 in SSW 10.0 mph 19.0 mph 93 % 0.01 in 0 W/m2
04:18 51.6 °F 49.7 °F 29.01 in SW 9.0 mph 15.0 mph 93 % 0.00 in 0 W/m2
04:20 51.6 °F 49.7 °F 29.01 in SW 8.0 mph 14.0 mph 93 % 0.00 in 0 W/m2
04:23 51.6 °F 49.7 °F 29.01 in SW 8.0 mph 12.0 mph 93 % 0.00 in 0 W/m2
04:24 51.6 °F 49.7 °F 29.01 in SW 7.0 mph 12.0 mph 93 % 0.00 in 0 W/m2
04:26 51.6 °F 49.7 °F 29.01 in SW 7.0 mph 12.0 mph 93 % 0.00 in 0 W/m2
04:29 51.8 °F 49.8 °F 29.01 in SW 9.0 mph 23.0 mph 93 % 0.00 in 0 W/m2
04:31 52.0 °F 50.0 °F 29.01 in SW 10.0 mph 23.0 mph 93 % 0.00 in 0 W/m2
04:33 52.0 °F 50.0 °F 29.01 in SW 10.0 mph 23.0 mph 93 % 0.00 in 0 W/m2
04:38 52.3 °F 50.1 °F 29.01 in SW 13.0 mph 23.0 mph 92 % 0.00 in 0 W/m2
04:39 52.3 °F 50.1 °F 29.00 in SW 12.0 mph 25.0 mph 92 % 0.00 in 0 W/m2
04:44 52.7 °F 50.1 °F 29.00 in SW 13.0 mph 25.0 mph 91 % 0.00 in 0 W/m2
04:49 52.9 °F 50.0 °F 29.00 in WSW 12.0 mph 25.0 mph 90 % 0.00 in 0 W/m2
04:54 53.1 °F 50.2 °F 29.00 in SW 11.0 mph 21.0 mph 90 % 0.00 in 0 W/m2
04:59 53.2 °F 50.1 °F 29.00 in SW 11.0 mph 21.0 mph 89 % 0.00 in 0 W/m2
05:04 53.2 °F 50.1 °F 29.00 in WSW 11.0 mph 21.0 mph 89 % 0.00 in 0 W/m2
05:09 53.4 °F 50.3 °F 29.01 in SW 11.0 mph 18.0 mph 89 % 0.00 in 0 W/m2
05:14 53.4 °F 50.3 °F 29.00 in SW 11.0 mph 23.0 mph 89 % 0.00 in 0 W/m2
05:19 53.6 °F 50.4 °F 29.00 in WSW 11.0 mph 23.0 mph 89 % 0.00 in 0 W/m2
05:24 53.8 °F 50.6 °F 29.00 in SW 11.0 mph 20.0 mph 89 % 0.00 in 0 W/m2
05:29 53.8 °F 50.6 °F 29.00 in WSW 13.0 mph 24.0 mph 89 % 0.01 in 0 W/m2
05:34 53.6 °F 50.4 °F 28.99 in WSW 13.0 mph 24.0 mph 89 % 0.01 in 0 W/m2
05:39 53.8 °F 50.6 °F 29.00 in WSW 14.0 mph 25.0 mph 89 % 0.01 in 0 W/m2
05:44 53.8 °F 50.6 °F 29.00 in WSW 14.0 mph 25.0 mph 89 % 0.01 in 0 W/m2
05:49 53.8 °F 50.6 °F 29.00 in WSW 11.0 mph 22.0 mph 89 % 0.01 in 0 W/m2
05:55 53.8 °F 50.6 °F 29.00 in WSW 12.0 mph 25.0 mph 89 % 0.01 in 0 W/m2
05:59 53.8 °F 50.6 °F 29.00 in WSW 13.0 mph 25.0 mph 89 % 0.01 in 0 W/m2
06:04 53.8 °F 50.9 °F 29.00 in WSW 12.0 mph 22.0 mph 90 % 0.01 in 0 W/m2
06:09 53.8 °F 50.9 °F 29.00 in WSW 13.0 mph 23.0 mph 90 % 0.01 in 0 W/m2
06:14 53.8 °F 50.9 °F 29.01 in WSW 12.0 mph 23.0 mph 90 % 0.01 in 0 W/m2
06:20 53.8 °F 50.9 °F 29.01 in WSW 11.0 mph 22.0 mph 90 % 0.02 in 0 W/m2
06:25 53.6 °F 50.7 °F 29.01 in WSW 10.0 mph 21.0 mph 90 % 0.02 in 0 W/m2
06:30 53.4 °F 50.9 °F 29.01 in WSW 10.0 mph 18.0 mph 91 % 0.01 in 0 W/m2
06:35 53.4 °F 50.9 °F 29.01 in WSW 10.0 mph 18.0 mph 91 % 0.01 in 0 W/m2
06:40 53.2 °F 50.7 °F 29.01 in WSW 10.0 mph 21.0 mph 91 % 0.01 in 0 W/m2
06:45 53.4 °F 50.9 °F 29.01 in West 9.0 mph 21.0 mph 91 % 0.01 in 7 W/m2
06:50 53.4 °F 50.9 °F 29.02 in West 8.0 mph 18.0 mph 91 % 0.01 in 5 W/m2
06:55 53.2 °F 50.7 °F 29.02 in West 8.0 mph 15.0 mph 91 % 0.01 in 7 W/m2
07:00 53.4 °F 50.9 °F 29.02 in WSW 9.0 mph 15.0 mph 91 % 0.01 in 14 W/m2
07:05 53.4 °F 50.9 °F 29.02 in WSW 10.0 mph 16.0 mph 91 % 0.01 in 30 W/m2
07:10 53.4 °F 50.9 °F 29.02 in WSW 10.0 mph 16.0 mph 91 % 0.01 in 33 W/m2
07:15 53.6 °F 51.0 °F 29.02 in WSW 10.0 mph 19.0 mph 91 % 0.01 in 37 W/m2
07:20 53.8 °F 51.2 °F 29.03 in WSW 10.0 mph 19.0 mph 91 % 0.00 in 42 W/m2
07:22 53.8 °F 51.2 °F 29.03 in WSW 11.0 mph 19.0 mph 91 % 0.00 in 33 W/m2
07:27 53.8 °F 51.2 °F 29.03 in WSW 10.0 mph 18.0 mph 91 % 0.00 in 47 W/m2
07:32 53.8 °F 51.2 °F 29.03 in WSW 9.0 mph 15.0 mph 91 % 0.00 in 39 W/m2
07:37 53.8 °F 51.2 °F 29.03 in WSW 10.0 mph 18.0 mph 91 % 0.00 in 39 W/m2
07:42 54.0 °F 51.4 °F 29.03 in West 11.0 mph 22.0 mph 91 % 0.00 in 56 W/m2
07:47 54.0 °F 51.4 °F 29.03 in WSW 10.0 mph 22.0 mph 91 % 0.00 in 42 W/m2
07:52 54.0 °F 51.4 °F 29.03 in WSW 9.0 mph 16.0 mph 91 % 0.01 in 14 W/m2
07:57 54.0 °F 51.4 °F 29.03 in WSW 9.0 mph 16.0 mph 91 % 0.02 in 25 W/m2
08:02 54.0 °F 51.4 °F 29.03 in WSW 9.0 mph 16.0 mph 91 % 0.02 in 16 W/m2
08:07 53.8 °F 51.2 °F 29.03 in WSW 9.0 mph 16.0 mph 91 % 0.02 in 12 W/m2
08:12 53.6 °F 51.0 °F 29.03 in SW 9.0 mph 16.0 mph 91 % 0.03 in 7 W/m2
08:17 53.4 °F 51.2 °F 29.03 in WSW 8.0 mph 16.0 mph 92 % 0.05 in 5 W/m2
08:22 53.4 °F 51.2 °F 29.04 in WSW 8.0 mph 15.0 mph 92 % 0.06 in 7 W/m2
08:27 53.2 °F 51.3 °F 29.04 in WSW 8.0 mph 15.0 mph 93 % 0.06 in 7 W/m2
08:32 53.2 °F 51.3 °F 29.04 in West 7.0 mph 12.0 mph 93 % 0.08 in 23 W/m2
08:37 53.2 °F 51.3 °F 29.04 in West 6.0 mph 11.0 mph 93 % 0.08 in 39 W/m2
08:42 53.2 °F 51.3 °F 29.04 in West 5.0 mph 9.0 mph 93 % 0.08 in 40 W/m2
08:47 53.2 °F 51.3 °F 29.04 in West 5.0 mph 13.0 mph 93 % 0.08 in 21 W/m2
08:52 53.2 °F 51.3 °F 29.05 in West 7.0 mph 13.0 mph 93 % 0.07 in 12 W/m2
08:57 53.2 °F 51.3 °F 29.05 in West 8.0 mph 16.0 mph 93 % 0.07 in 33 W/m2
09:02 53.2 °F 51.3 °F 29.05 in West 8.0 mph 16.0 mph 93 % 0.08 in 58 W/m2
09:07 53.1 °F 51.4 °F 29.05 in West 8.0 mph 14.0 mph 94 % 0.08 in 77 W/m2
09:12 53.2 °F 51.6 °F 29.05 in West 6.0 mph 14.0 mph 94 % 0.06 in 69 W/m2
09:17 53.2 °F 51.6 °F 29.05 in West 4.0 mph 7.0 mph 94 % 0.05 in 81 W/m2
09:22 53.2 °F 51.6 °F 29.06 in West 3.0 mph 6.0 mph 94 % 0.04 in 107 W/m2
09:27 53.6 °F 52.2 °F 29.06 in West 5.0 mph 12.0 mph 95 % 0.03 in 114 W/m2
09:32 54.0 °F 52.6 °F 29.06 in West 8.0 mph 18.0 mph 95 % 0.02 in 97 W/m2
09:37 54.1 °F 52.5 °F 29.06 in West 9.0 mph 18.0 mph 94 % 0.02 in 62 W/m2
09:42 54.1 °F 52.5 °F 29.06 in West 9.0 mph 14.0 mph 94 % 0.02 in 37 W/m2
09:47 54.1 °F 52.2 °F 29.06 in West 7.0 mph 14.0 mph 93 % 0.02 in 42 W/m2
09:52 54.1 °F 52.2 °F 29.07 in West 6.0 mph 11.0 mph 93 % 0.02 in 47 W/m2
09:57 54.0 °F 52.0 °F 29.08 in West 7.0 mph 13.0 mph 93 % 0.01 in 54 W/m2
10:02 54.0 °F 52.0 °F 29.08 in West 8.0 mph 14.0 mph 93 % 0.00 in 86 W/m2
10:07 54.1 °F 51.9 °F 29.08 in West 9.0 mph 15.0 mph 92 % 0.00 in 109 W/m2
10:12 54.3 °F 52.0 °F 29.08 in West 8.0 mph 15.0 mph 92 % 0.00 in 93 W/m2
10:17 54.5 °F 52.2 °F 29.08 in West 8.0 mph 15.0 mph 92 % 0.00 in 104 W/m2
10:22 54.7 °F 52.4 °F 29.08 in West 7.0 mph 14.0 mph 92 % 0.00 in 153 W/m2
10:27 55.4 °F 53.4 °F 29.08 in West 7.0 mph 14.0 mph 93 % 0.00 in 761 W/m2
10:32 55.9 °F 53.6 °F 29.08 in West 8.0 mph 15.0 mph 92 % 0.00 in 153 W/m2
10:37 56.3 °F 54.0 °F 29.09 in West 10.0 mph 21.0 mph 92 % 0.00 in 199 W/m2
10:42 56.8 °F 54.2 °F 29.09 in West 11.0 mph 21.0 mph 91 % 0.00 in 789 W/m2
10:47 57.6 °F 54.6 °F 29.09 in West 11.0 mph 18.0 mph 90 % 0.00 in 248 W/m2
10:52 58.1 °F 54.6 °F 29.09 in WNW 12.0 mph 25.0 mph 88 % 0.00 in 214 W/m2
10:57 58.1 °F 53.9 °F 29.09 in WNW 13.0 mph 25.0 mph 86 % 0.00 in 162 W/m2
11:02 57.9 °F 54.1 °F 29.10 in WNW 12.0 mph 24.0 mph 87 % 0.00 in 192 W/m2
11:07 58.1 °F 54.2 °F 29.09 in West 10.0 mph 20.0 mph 87 % 0.00 in 708 W/m2
11:12 58.6 °F 54.5 °F 29.09 in West 11.0 mph 20.0 mph 86 % 0.00 in 378 W/m2
11:17 58.8 °F 54.0 °F 29.10 in West 13.0 mph 26.0 mph 84 % 0.00 in 302 W/m2
11:22 59.0 °F 54.5 °F 29.10 in West 13.0 mph 26.0 mph 85 % 0.00 in 327 W/m2
11:27 59.0 °F 54.5 °F 29.10 in West 12.0 mph 20.0 mph 85 % 0.00 in 134 W/m2
11:32 58.5 °F 54.3 °F 29.10 in West 12.0 mph 21.0 mph 86 % 0.00 in 165 W/m2
11:37 57.9 °F 53.8 °F 29.10 in West 12.0 mph 22.0 mph 86 % 0.00 in 687 W/m2
11:42 58.6 °F 54.8 °F 29.10 in West 11.0 mph 22.0 mph 87 % 0.00 in 719 W/m2
11:47 59.5 °F 55.3 °F 29.10 in West 11.0 mph 22.0 mph 86 % 0.00 in 752 W/m2
11:52 59.9 °F 54.4 °F 29.11 in West 12.0 mph 23.0 mph 82 % 0.00 in 777 W/m2
11:58 59.9 °F 54.4 °F 29.11 in West 13.0 mph 25.0 mph 82 % 0.00 in 459 W/m2
12:03 60.6 °F 55.4 °F 29.11 in West 12.0 mph 25.0 mph 83 % 0.00 in 895 W/m2
12:08 61.9 °F 55.3 °F 29.11 in West 13.0 mph 25.0 mph 79 % 0.00 in 805 W/m2
12:13 61.9 °F 54.6 °F 29.11 in West 15.0 mph 25.0 mph 77 % 0.00 in 153 W/m2
12:18 61.0 °F 55.1 °F 29.12 in West 15.0 mph 26.0 mph 81 % 0.01 in 155 W/m2
12:23 59.5 °F 54.4 °F 29.12 in West 16.0 mph 29.0 mph 83 % 0.01 in 306 W/m2
12:28 59.5 °F 55.3 °F 29.12 in West 14.0 mph 29.0 mph 86 % 0.01 in 689 W/m2
12:33 59.7 °F 54.9 °F 29.12 in West 14.0 mph 29.0 mph 84 % 0.01 in 230 W/m2
12:38 59.5 °F 54.4 °F 29.12 in West 16.0 mph 29.0 mph 83 % 0.01 in 805 W/m2
12:43 60.1 °F 55.2 °F 29.13 in West 15.0 mph 26.0 mph 84 % 0.01 in 805 W/m2
12:48 59.5 °F 54.7 °F 29.13 in West 16.0 mph 26.0 mph 84 % 0.02 in 67 W/m2
12:53 58.5 °F 54.0 °F 29.13 in West 16.0 mph 26.0 mph 85 % 0.02 in 63 W/m2
12:58 57.7 °F 53.6 °F 29.13 in West 16.0 mph 30.0 mph 86 % 0.02 in 81 W/m2
13:03 57.4 °F 53.5 °F 29.14 in West 15.0 mph 30.0 mph 87 % 0.02 in 95 W/m2
13:08 56.8 °F 53.3 °F 29.14 in West 13.0 mph 23.0 mph 88 % 0.02 in 156 W/m2
13:13 56.7 °F 53.5 °F 29.14 in West 12.0 mph 22.0 mph 89 % 0.02 in 211 W/m2
13:18 56.7 °F 53.5 °F 29.14 in West 12.0 mph 21.0 mph 89 % 0.01 in 278 W/m2
13:23 57.0 °F 53.8 °F 29.14 in West 13.0 mph 23.0 mph 89 % 0.01 in 742 W/m2
13:28 57.9 °F 54.7 °F 29.14 in West 14.0 mph 23.0 mph 89 % 0.01 in 696 W/m2
13:33 58.8 °F 55.6 °F 29.14 in West 14.0 mph 24.0 mph 89 % 0.01 in 691 W/m2
13:38 59.5 °F 55.0 °F 29.15 in West 16.0 mph 31.0 mph 85 % 0.01 in 710 W/m2
13:43 60.3 °F 55.1 °F 29.15 in WNW 19.0 mph 31.0 mph 83 % 0.01 in 863 W/m2
13:48 60.8 °F 55.3 °F 29.15 in WNW 18.0 mph 30.0 mph 82 % 0.00 in 190 W/m2
13:53 60.8 °F 54.6 °F 29.16 in WNW 17.0 mph 26.0 mph 80 % 0.00 in 188 W/m2
13:58 60.6 °F 54.4 °F 29.16 in WNW 15.0 mph 28.0 mph 80 % 0.00 in 67 W/m2
14:03 60.1 °F 53.5 °F 29.16 in WNW 15.0 mph 28.0 mph 79 % 0.00 in 90 W/m2
14:08 60.1 °F 54.2 °F 29.17 in WNW 15.0 mph 24.0 mph 81 % 0.00 in 192 W/m2
14:13 60.4 °F 54.2 °F 29.17 in West 16.0 mph 32.0 mph 80 % 0.00 in 768 W/m2
14:18 61.0 °F 54.4 °F 29.16 in West 18.0 mph 32.0 mph 79 % 0.00 in 715 W/m2
14:23 61.3 °F 54.8 °F 29.17 in WNW 19.0 mph 30.0 mph 79 % 0.00 in 686 W/m2
14:28 61.7 °F 55.1 °F 29.17 in WNW 17.0 mph 30.0 mph 79 % 0.00 in 824 W/m2
14:33 62.1 °F 55.1 °F 29.17 in WNW 15.0 mph 27.0 mph 78 % 0.00 in 485 W/m2
14:38 62.1 °F 54.4 °F 29.18 in WNW 16.0 mph 29.0 mph 76 % 0.00 in 466 W/m2
14:43 61.5 °F 54.6 °F 29.18 in West 15.0 mph 29.0 mph 78 % 0.00 in 598 W/m2
14:44 61.7 °F 54.8 °F 29.18 in West 15.0 mph 29.0 mph 78 % 0.00 in 703 W/m2
14:49 61.9 °F 54.6 °F 29.18 in WNW 14.0 mph 26.0 mph 77 % 0.00 in 698 W/m2
14:54 62.2 °F 54.9 °F 29.18 in WNW 16.0 mph 27.0 mph 77 % 0.00 in 738 W/m2
14:59 62.4 °F 54.8 °F 29.18 in WNW 15.0 mph 27.0 mph 76 % 0.00 in 657 W/m2
15:04 62.8 °F 55.8 °F 29.18 in WNW 14.0 mph 26.0 mph 78 % 0.00 in 661 W/m2
15:09 62.8 °F 54.7 °F 29.18 in WNW 14.0 mph 26.0 mph 75 % 0.00 in 661 W/m2
15:14 62.2 °F 54.2 °F 29.19 in WNW 17.0 mph 27.0 mph 75 % 0.00 in 169 W/m2
15:19 62.1 °F 54.4 °F 29.19 in West 17.0 mph 27.0 mph 76 % 0.00 in 169 W/m2
15:24 62.4 °F 54.4 °F 29.19 in West 17.0 mph 30.0 mph 75 % 0.00 in 193 W/m2
15:29 62.4 °F 54.4 °F 29.19 in WNW 18.0 mph 30.0 mph 75 % 0.00 in 780 W/m2
15:34 62.8 °F 54.7 °F 29.19 in WNW 19.0 mph 30.0 mph 75 % 0.00 in 654 W/m2
15:39 63.0 °F 54.9 °F 29.20 in WNW 16.0 mph 30.0 mph 75 % 0.00 in 663 W/m2
15:44 63.0 °F 54.5 °F 29.20 in WNW 16.0 mph 35.0 mph 74 % 0.00 in 527 W/m2
15:49 62.8 °F 54.4 °F 29.20 in West 19.0 mph 35.0 mph 74 % 0.00 in 561 W/m2
15:54 62.6 °F 54.2 °F 29.21 in West 18.0 mph 29.0 mph 74 % 0.00 in 371 W/m2
15:59 62.2 °F 53.8 °F 29.21 in WNW 18.0 mph 34.0 mph 74 % 0.00 in 179 W/m2
16:04 61.5 °F 53.2 °F 29.22 in WNW 19.0 mph 35.0 mph 74 % 0.00 in 216 W/m2
16:09 61.0 °F 53.0 °F 29.22 in WNW 20.0 mph 35.0 mph 75 % 0.00 in 253 W/m2
16:14 61.2 °F 53.5 °F 29.22 in WNW 18.0 mph 33.0 mph 76 % 0.00 in 454 W/m2
16:19 61.3 °F 53.3 °F 29.22 in WNW 18.0 mph 33.0 mph 75 % 0.00 in 471 W/m2
16:24 61.5 °F 53.5 °F 29.23 in WNW 18.0 mph 30.0 mph 75 % 0.00 in 424 W/m2
16:29 61.7 °F 53.3 °F 29.23 in WNW 18.0 mph 31.0 mph 74 % 0.00 in 415 W/m2
16:34 61.7 °F 53.0 °F 29.23 in WNW 20.0 mph 32.0 mph 73 % 0.00 in 396 W/m2
16:39 61.5 °F 52.4 °F 29.23 in WNW 21.0 mph 34.0 mph 72 % 0.00 in 374 W/m2
16:44 61.7 °F 52.6 °F 29.24 in WNW 19.0 mph 34.0 mph 72 % 0.00 in 383 W/m2
16:49 61.9 °F 52.4 °F 29.24 in WNW 16.0 mph 27.0 mph 71 % 0.00 in 411 W/m2
16:54 61.9 °F 52.0 °F 29.24 in WNW 17.0 mph 31.0 mph 70 % 0.00 in 357 W/m2
16:59 62.1 °F 52.2 °F 29.25 in WNW 18.0 mph 31.0 mph 70 % 0.00 in 338 W/m2
17:04 61.7 °F 51.4 °F 29.25 in WNW 19.0 mph 34.0 mph 69 % 0.00 in 323 W/m2
17:09 61.5 °F 50.9 °F 29.26 in WNW 21.0 mph 34.0 mph 68 % 0.00 in 306 W/m2
17:14 61.2 °F 50.9 °F 29.26 in WNW 20.0 mph 32.0 mph 69 % 0.00 in 297 W/m2
17:19 61.2 °F 50.9 °F 29.26 in WNW 18.0 mph 31.0 mph 69 % 0.00 in 287 W/m2
17:24 61.2 °F 50.9 °F 29.26 in WNW 16.0 mph 30.0 mph 69 % 0.00 in 281 W/m2
17:29 61.2 °F 50.9 °F 29.27 in WNW 17.0 mph 30.0 mph 69 % 0.00 in 250 W/m2
17:34 61.0 °F 50.7 °F 29.27 in WNW 18.0 mph 34.0 mph 69 % 0.00 in 241 W/m2
17:39 60.8 °F 51.0 °F 29.27 in WNW 18.0 mph 34.0 mph 70 % 0.00 in 221 W/m2
17:44 60.6 °F 50.8 °F 29.27 in WNW 16.0 mph 30.0 mph 70 % 0.00 in 209 W/m2
17:49 60.4 °F 50.6 °F 29.27 in WNW 16.0 mph 30.0 mph 70 % 0.00 in 183 W/m2
17:54 60.3 °F 50.8 °F 29.27 in WNW 16.0 mph 30.0 mph 71 % 0.00 in 158 W/m2
17:59 59.7 °F 50.3 °F 29.28 in WNW 18.0 mph 30.0 mph 71 % 0.00 in 102 W/m2
18:04 59.4 °F 50.0 °F 29.28 in WNW 17.0 mph 30.0 mph 71 % 0.00 in 90 W/m2
18:10 59.2 °F 50.2 °F 29.29 in WNW 17.0 mph 30.0 mph 72 % 0.00 in 83 W/m2
18:15 58.6 °F 50.0 °F 29.29 in WNW 17.0 mph 30.0 mph 73 % 0.00 in 95 W/m2
18:20 58.6 °F 50.0 °F 29.29 in WNW 18.0 mph 29.0 mph 73 % 0.00 in 137 W/m2
18:25 58.6 °F 50.0 °F 29.29 in WNW 16.0 mph 28.0 mph 73 % 0.00 in 113 W/m2
18:30 58.6 °F 50.0 °F 29.30 in WNW 14.0 mph 24.0 mph 73 % 0.00 in 104 W/m2
18:35 58.5 °F 50.2 °F 29.30 in WNW 15.0 mph 26.0 mph 74 % 0.00 in 102 W/m2
18:40 58.3 °F 50.0 °F 29.30 in WNW 16.0 mph 28.0 mph 74 % 0.00 in 93 W/m2
18:45 58.1 °F 49.9 °F 29.30 in WNW 16.0 mph 29.0 mph 74 % 0.00 in 81 W/m2
18:50 57.9 °F 49.7 °F 29.31 in WNW 16.0 mph 29.0 mph 74 % 0.00 in 70 W/m2
18:55 57.9 °F 49.7 °F 29.31 in WNW 16.0 mph 29.0 mph 74 % 0.00 in 56 W/m2
19:00 57.7 °F 49.5 °F 29.31 in WNW 18.0 mph 30.0 mph 74 % 0.00 in 39 W/m2
19:05 57.6 °F 49.3 °F 29.32 in WNW 18.0 mph 30.0 mph 74 % 0.00 in 30 W/m2
19:10 57.4 °F 49.5 °F 29.32 in WNW 16.0 mph 29.0 mph 75 % 0.00 in 25 W/m2
19:15 57.2 °F 49.3 °F 29.32 in WNW 14.0 mph 27.0 mph 75 % 0.00 in 21 W/m2
19:20 57.0 °F 49.5 °F 29.32 in WNW 14.0 mph 27.0 mph 76 % 0.00 in 19 W/m2
19:25 56.8 °F 49.4 °F 29.32 in WNW 14.0 mph 23.0 mph 76 % 0.00 in 14 W/m2
19:30 56.7 °F 49.5 °F 29.33 in WNW 14.0 mph 25.0 mph 77 % 0.00 in 11 W/m2
19:35 56.5 °F 49.7 °F 29.33 in WNW 14.0 mph 25.0 mph 78 % 0.00 in 7 W/m2
19:40 56.5 °F 49.7 °F 29.33 in WNW 14.0 mph 24.0 mph 78 % 0.00 in 5 W/m2
19:45 56.3 °F 49.9 °F 29.33 in WNW 14.0 mph 25.0 mph 79 % 0.00 in 0 W/m2
19:50 56.1 °F 49.7 °F 29.34 in WNW 14.0 mph 25.0 mph 79 % 0.00 in 0 W/m2
19:54 56.1 °F 49.7 °F 29.34 in WNW 14.0 mph 25.0 mph 79 % 0.00 in 0 W/m2
19:59 55.9 °F 49.5 °F 29.34 in WNW 15.0 mph 24.0 mph 79 % 0.00 in 0 W/m2
20:04 55.9 °F 49.5 °F 29.34 in WNW 16.0 mph 25.0 mph 79 % 0.00 in 0 W/m2
20:09 55.9 °F 49.9 °F 29.35 in WNW 14.0 mph 27.0 mph 80 % 0.00 in 0 W/m2
20:14 55.8 °F 49.7 °F 29.35 in WNW 14.0 mph 27.0 mph 80 % 0.00 in 0 W/m2
20:19 55.8 °F 49.7 °F 29.35 in WNW 15.0 mph 26.0 mph 80 % 0.00 in 0 W/m2
20:24 55.8 °F 49.7 °F 29.35 in WNW 16.0 mph 28.0 mph 80 % 0.00 in 0 W/m2
20:29 55.8 °F 49.7 °F 29.36 in WNW 15.0 mph 28.0 mph 80 % 0.00 in 0 W/m2
20:34 55.6 °F 49.8 °F 29.36 in WNW 14.0 mph 25.0 mph 81 % 0.00 in 0 W/m2
20:39 55.6 °F 49.8 °F 29.37 in WNW 15.0 mph 26.0 mph 81 % 0.00 in 0 W/m2
20:44 55.4 °F 49.7 °F 29.37 in WNW 15.0 mph 26.0 mph 81 % 0.00 in 0 W/m2
20:49 55.2 °F 49.5 °F 29.37 in WNW 14.0 mph 26.0 mph 81 % 0.00 in 0 W/m2
20:54 55.2 °F 49.5 °F 29.37 in WNW 15.0 mph 26.0 mph 81 % 0.00 in 0 W/m2
20:59 55.2 °F 49.5 °F 29.37 in WNW 14.0 mph 24.0 mph 81 % 0.00 in 0 W/m2
21:04 55.0 °F 49.3 °F 29.37 in WNW 13.0 mph 24.0 mph 81 % 0.00 in 0 W/m2
21:09 55.0 °F 49.3 °F 29.37 in WNW 14.0 mph 24.0 mph 81 % 0.00 in 0 W/m2
21:14 54.9 °F 49.1 °F 29.37 in WNW 15.0 mph 26.0 mph 81 % 0.00 in 0 W/m2
21:19 54.9 °F 49.1 °F 29.38 in WNW 14.0 mph 26.0 mph 81 % 0.00 in 0 W/m2
21:24 54.9 °F 49.5 °F 29.38 in WNW 14.0 mph 24.0 mph 82 % 0.00 in 0 W/m2
21:29 54.7 °F 49.3 °F 29.38 in WNW 14.0 mph 26.0 mph 82 % 0.00 in 0 W/m2
21:34 54.7 °F 49.3 °F 29.39 in WNW 14.0 mph 26.0 mph 82 % 0.00 in 0 W/m2
21:39 54.7 °F 49.3 °F 29.39 in WNW 12.0 mph 26.0 mph 82 % 0.00 in 0 W/m2
21:44 54.5 °F 49.1 °F 29.39 in WNW 12.0 mph 22.0 mph 82 % 0.00 in 0 W/m2
21:49 54.5 °F 49.1 °F 29.39 in WNW 13.0 mph 22.0 mph 82 % 0.00 in 0 W/m2
21:54 54.5 °F 49.1 °F 29.39 in WNW 14.0 mph 25.0 mph 82 % 0.00 in 0 W/m2
21:59 54.3 °F 48.9 °F 29.39 in WNW 14.0 mph 25.0 mph 82 % 0.00 in 0 W/m2
22:04 54.3 °F 48.9 °F 29.39 in WNW 12.0 mph 22.0 mph 82 % 0.00 in 0 W/m2
22:09 54.1 °F 48.8 °F 29.40 in WNW 12.0 mph 20.0 mph 82 % 0.00 in 0 W/m2
22:14 54.1 °F 48.8 °F 29.40 in WNW 11.0 mph 20.0 mph 82 % 0.00 in 0 W/m2
22:19 54.1 °F 48.8 °F 29.40 in West 12.0 mph 21.0 mph 82 % 0.00 in 0 W/m2
22:24 54.1 °F 48.8 °F 29.41 in West 13.0 mph 23.0 mph 82 % 0.00 in 0 W/m2
22:29 54.1 °F 49.1 °F 29.40 in WNW 13.0 mph 23.0 mph 83 % 0.00 in 0 W/m2
22:34 54.0 °F 48.9 °F 29.40 in West 14.0 mph 24.0 mph 83 % 0.00 in 0 W/m2
22:39 54.1 °F 49.1 °F 29.41 in West 13.0 mph 24.0 mph 83 % 0.00 in 0 W/m2
22:44 54.1 °F 49.1 °F 29.41 in West 13.0 mph 22.0 mph 83 % 0.00 in 0 W/m2
22:49 54.1 °F 49.1 °F 29.41 in West 12.0 mph 22.0 mph 83 % 0.00 in 0 W/m2
22:54 54.1 °F 49.1 °F 29.41 in West 12.0 mph 21.0 mph 83 % 0.00 in 0 W/m2
22:59 54.1 °F 49.1 °F 29.42 in West 13.0 mph 24.0 mph 83 % 0.00 in 0 W/m2
23:04 54.1 °F 49.1 °F 29.42 in West 12.0 mph 24.0 mph 83 % 0.00 in 0 W/m2
23:09 54.1 °F 49.1 °F 29.42 in West 12.0 mph 20.0 mph 83 % 0.00 in 0 W/m2
23:14 54.0 °F 48.6 °F 29.42 in West 13.0 mph 26.0 mph 82 % 0.00 in 0 W/m2
23:19 54.0 °F 48.6 °F 29.42 in WNW 13.0 mph 26.0 mph 82 % 0.00 in 0 W/m2
23:25 54.0 °F 48.6 °F 29.43 in WNW 13.0 mph 23.0 mph 82 % 0.00 in 0 W/m2
23:30 54.0 °F 48.9 °F 29.43 in WNW 12.0 mph 22.0 mph 83 % 0.00 in 0 W/m2
23:35 54.0 °F 48.9 °F 29.43 in WNW 12.0 mph 25.0 mph 83 % 0.00 in 0 W/m2
23:40 54.0 °F 49.2 °F 29.43 in WNW 11.0 mph 25.0 mph 84 % 0.00 in 0 W/m2
23:45 53.8 °F 49.1 °F 29.43 in West 11.0 mph 20.0 mph 84 % 0.00 in 0 W/m2
23:50 53.6 °F 48.9 °F 29.43 in West 11.0 mph 20.0 mph 84 % 0.00 in 0 W/m2
23:55 53.6 °F 48.9 °F 29.43 in West 11.0 mph 19.0 mph 84 % 0.00 in 0 W/m2
Delerius-Weather
Compliments of Weather Underground - 2.25 mb

Data updates at regular intervals.